Terminal Aerodrome Forecast
Issued by NWS

Home | Current Version | Previous Version | Text Only | Print | Product List | Glossary On
Versions: 1 2 3 4 5 6 7 8 9 10 11 12 13 14 15 16 17 18 19
000
FTUS45 KPSR 261723
TAFIPL
TAF
KIPL 261723Z 2618/2718 18007KT P6SM SCT250
     FM270200 26010G18KT P6SM SCT120 SCT200
     FM270800 28004KT P6SM SCT120 SCT200=

USA.gov is the U.S. government's official web portal to all federal, state and local government web resources and services.